Time;durP1;ratioP1;P1;durP2;ratioP2;P2;SDS_P1;SDS_P2;PMS_P1;PMS_P2;Temp;Humidity;BMP_temperature;BMP_pressure;BME280_temperature;BME280_humidity;BME280_pressure;Samples;Min_cycle;Max_cycle;Signal;HPM_P1;HPM_P2
2021/06/05 00:01:54;;;;;;;4.50;4.10;;;20.30;99.90;;;;;;5073690;28;20817;-85
2021/06/05 00:04:22;;;;;;;4.33;3.93;;;20.30;99.90;;;;;;5055606;28;20448;-85
2021/06/05 00:06:49;;;;;;;4.23;3.83;;;20.30;99.90;;;;;;5054794;28;20451;-86
2021/06/05 00:09:18;;;;;;;2.80;2.60;;;20.30;99.90;;;;;;5058871;28;20487;-85
2021/06/05 00:11:45;;;;;;;2.90;2.53;;;20.40;99.90;;;;;;5073808;28;20448;-84
2021/06/05 00:14:13;;;;;;;2.60;2.40;;;20.50;99.90;;;;;;5070547;28;20450;-85
2021/06/05 00:16:42;;;;;;;3.53;2.70;;;20.60;99.90;;;;;;5064160;28;20458;-85
2021/06/05 00:19:11;;;;;;;3.40;3.03;;;20.60;99.90;;;;;;5056708;28;20467;-86
2021/06/05 00:21:37;;;;;;;3.00;2.20;;;20.60;99.90;;;;;;5059790;28;20447;-85
2021/06/05 00:24:05;;;;;;;8.90;3.03;;;20.60;99.90;;;;;;5071889;28;20454;-85
2021/06/05 00:26:31;;;;;;;3.60;3.03;;;20.50;99.90;;;;;;5058041;28;20451;-85
2021/06/05 00:28:57;;;;;;;3.00;2.70;;;20.50;99.90;;;;;;5055480;28;20494;-86
2021/06/05 00:31:25;;;;;;;2.57;2.37;;;20.50;99.90;;;;;;5054892;28;20455;-86
2021/06/05 00:33:52;;;;;;;2.50;2.30;;;20.40;99.90;;;;;;5054552;28;20505;-86
2021/06/05 00:36:18;;;;;;;3.33;2.77;;;20.40;99.90;;;;;;5054990;28;20451;-86
2021/06/05 00:38:45;;;;;;;5.10;2.37;;;20.30;99.90;;;;;;5054444;28;20454;-86
2021/06/05 00:41:16;;;;;;;2.30;2.03;;;20.30;99.90;;;;;;5067009;28;20447;-85
2021/06/05 00:43:45;;;;;;;5.47;2.30;;;20.20;99.90;;;;;;5072429;28;20450;-85
2021/06/05 00:46:13;;;;;;;3.00;1.60;;;20.10;99.90;;;;;;5077954;28;20432;-83
2021/06/05 00:48:44;;;;;;;1.90;1.70;;;20.00;99.90;;;;;;5076309;28;20471;-85
2021/06/05 00:51:12;;;;;;;2.67;1.83;;;20.00;99.90;;;;;;5060241;28;20440;-85
2021/06/05 00:53:38;;;;;;;5.80;2.00;;;20.00;99.90;;;;;;5068790;28;20496;-84
2021/06/05 00:56:10;;;;;;;2.00;1.80;;;19.90;99.90;;;;;;5078450;28;20479;-85
2021/06/05 00:58:36;;;;;;;2.50;1.47;;;19.90;99.90;;;;;;5078840;28;20442;-86
2021/06/05 01:01:09;;;;;;;5.87;1.57;;;19.90;99.90;;;;;;5073351;28;20446;-86
2021/06/05 01:03:38;;;;;;;2.90;1.90;;;19.90;99.90;;;;;;5078481;28;20448;-86
2021/06/05 01:06:11;;;;;;;3.27;2.33;;;19.80;99.90;;;;;;5077863;28;20456;-85
2021/06/05 01:08:44;;;;;;;2.67;2.23;;;19.80;99.90;;;;;;5077394;28;20856;-85
2021/06/05 01:11:18;;;;;;;2.80;2.10;;;19.70;99.90;;;;;;5076333;28;20446;-85
2021/06/05 01:13:49;;;;;;;4.50;2.57;;;19.60;99.90;;;;;;5076336;28;20468;-85
2021/06/05 01:16:19;;;;;;;5.53;2.30;;;19.60;99.90;;;;;;5075411;28;20909;-86
2021/06/05 01:18:50;;;;;;;3.20;2.20;;;19.50;99.90;;;;;;5076630;28;20441;-86
2021/06/05 01:21:36;;;;;;;4.40;2.10;;;19.40;99.90;;;;;;5075067;28;20949;-85
2021/06/05 01:24:12;;;;;;;3.10;2.00;;;19.30;99.90;;;;;;5074877;28;20447;-85
2021/06/05 01:26:43;;;;;;;2.40;2.00;;;19.30;99.90;;;;;;5077169;28;20454;-85
2021/06/05 01:29:14;;;;;;;2.17;1.80;;;19.30;99.90;;;;;;5088244;28;20529;-87
2021/06/05 01:31:44;;;;;;;2.17;1.97;;;19.20;99.90;;;;;;5080394;28;20447;-86
2021/06/05 01:34:11;;;;;;;2.67;2.10;;;19.20;99.90;;;;;;5074674;28;20444;-87
2021/06/05 01:36:44;;;;;;;3.10;2.17;;;19.20;99.90;;;;;;5074528;28;20503;-86
2021/06/05 01:39:13;;;;;;;7.43;2.20;;;19.20;99.90;;;;;;5082680;28;20470;-87
2021/06/05 01:41:43;;;;;;;2.30;1.90;;;19.20;99.90;;;;;;5079719;28;20955;-87
2021/06/05 01:44:10;;;;;;;2.50;2.00;;;19.20;99.90;;;;;;5075492;28;20485;-86
2021/06/05 01:46:40;;;;;;;3.30;3.00;;;19.20;99.90;;;;;;5075815;28;20450;-87
2021/06/05 01:49:08;;;;;;;2.50;1.80;;;19.10;99.90;;;;;;5073719;28;20479;-87
2021/06/05 01:51:36;;;;;;;5.57;2.73;;;19.20;99.90;;;;;;5073783;28;20561;-85
2021/06/05 01:54:08;;;;;;;5.07;2.50;;;19.20;99.90;;;;;;5073625;28;20444;-86
2021/06/05 01:56:38;;;;;;;3.83;2.87;;;19.30;99.90;;;;;;5073660;28;20456;-86
2021/06/05 01:59:07;;;;;;;4.63;1.53;;;19.30;99.90;;;;;;5073906;28;20547;-86
2021/06/05 02:01:34;;;;;;;3.20;1.67;;;19.30;99.90;;;;;;5085098;28;20922;-86
2021/06/05 02:04:00;;;;;;;2.80;1.90;;;19.30;99.90;;;;;;5097132;28;20426;-86
2021/06/05 02:06:27;;;;;;;2.60;1.80;;;19.30;99.90;;;;;;5079032;28;20443;-85
2021/06/05 02:08:54;;;;;;;2.00;1.83;;;19.30;99.90;;;;;;5073645;28;20482;-85
2021/06/05 02:11:26;;;;;;;4.00;2.20;;;19.30;99.90;;;;;;5073544;28;20521;-85
2021/06/05 02:14:02;;;;;;;2.70;1.73;;;19.30;99.90;;;;;;5072849;28;20456;-85
2021/06/05 02:16:35;;;;;;;3.60;1.77;;;19.30;99.90;;;;;;5072837;28;20473;-86
2021/06/05 02:19:06;;;;;;;2.57;1.63;;;19.30;99.90;;;;;;5072865;28;20480;-85
2021/06/05 02:21:35;;;;;;;2.80;1.60;;;19.30;99.90;;;;;;5072973;28;20449;-85
2021/06/05 02:24:06;;;;;;;2.00;1.60;;;19.40;99.90;;;;;;5064829;28;20456;-85
2021/06/05 02:26:34;;;;;;;2.70;1.80;;;19.40;99.90;;;;;;5072982;28;20449;-86
2021/06/05 02:29:03;;;;;;;1.93;1.73;;;19.40;99.90;;;;;;5072801;28;20496;-85
2021/06/05 02:31:34;;;;;;;2.57;1.80;;;19.30;99.90;;;;;;5072736;28;20449;-85
2021/06/05 02:34:02;;;;;;;4.50;1.80;;;19.30;99.90;;;;;;5072879;28;20444;-85
2021/06/05 02:36:28;;;;;;;2.10;2.00;;;19.30;99.90;;;;;;5072179;28;20478;-85
2021/06/05 02:38:55;;;;;;;2.23;2.03;;;19.30;99.90;;;;;;5072599;28;20485;-85
2021/06/05 02:41:23;;;;;;;2.33;1.93;;;19.30;99.90;;;;;;5073006;28;20873;-86
2021/06/05 02:43:51;;;;;;;2.30;1.70;;;19.20;99.90;;;;;;5073888;28;20453;-88
2021/06/05 02:46:20;;;;;;;3.10;1.87;;;19.10;99.90;;;;;;5085909;28;20426;-87
2021/06/05 02:48:50;;;;;;;2.37;1.97;;;19.00;99.90;;;;;;5088801;28;20844;-88
2021/06/05 02:51:20;;;;;;;2.30;2.03;;;18.90;99.90;;;;;;5093799;28;20444;-86
2021/06/05 02:53:46;;;;;;;3.23;2.10;;;19.00;99.90;;;;;;5094440;28;20450;-87
2021/06/05 02:56:13;;;;;;;2.07;1.60;;;18.80;99.90;;;;;;5075179;28;20951;-88
2021/06/05 02:58:40;;;;;;;3.17;1.90;;;18.80;99.90;;;;;;5074528;28;20448;-88
2021/06/05 03:01:08;;;;;;;3.17;2.50;;;18.70;99.90;;;;;;5076016;28;20439;-87
2021/06/05 03:03:35;;;;;;;3.30;2.27;;;18.80;99.90;;;;;;5074021;28;20483;-87
2021/06/05 03:06:04;;;;;;;2.00;1.80;;;18.80;99.90;;;;;;5075091;28;20436;-88
2021/06/05 03:08:33;;;;;;;2.27;2.07;;;18.80;99.90;;;;;;5074726;28;20465;-88
2021/06/05 03:11:00;;;;;;;2.97;1.90;;;18.80;99.90;;;;;;5073792;28;20452;-87
2021/06/05 03:13:27;;;;;;;1.70;1.50;;;18.70;99.90;;;;;;5070466;28;20454;-88
2021/06/05 03:15:54;;;;;;;2.70;2.00;;;18.70;99.90;;;;;;5055465;28;20953;-89
2021/06/05 03:18:23;;;;;;;2.60;1.80;;;18.80;99.90;;;;;;5054076;28;20978;-88
2021/06/05 03:20:50;;;;;;;7.23;2.30;;;18.80;99.90;;;;;;5053723;28;20463;-88
2021/06/05 03:23:20;;;;;;;2.20;2.00;;;18.90;99.90;;;;;;5053371;28;20435;-88
2021/06/05 03:25:48;;;;;;;2.57;1.90;;;19.00;99.90;;;;;;5052772;28;20438;-88
2021/06/05 03:28:16;;;;;;;4.07;2.83;;;19.00;99.90;;;;;;5052940;28;20485;-88
2021/06/05 03:30:42;;;;;;;3.40;2.33;;;19.10;99.90;;;;;;5052661;28;20522;-88
2021/06/05 03:33:09;;;;;;;2.93;1.60;;;19.10;99.90;;;;;;5052380;28;20457;-89
2021/06/05 03:35:37;;;;;;;2.80;2.07;;;19.20;99.90;;;;;;5052655;28;20453;-88
2021/06/05 03:38:04;;;;;;;2.80;1.63;;;19.20;99.90;;;;;;5052344;28;20451;-88
2021/06/05 03:40:34;;;;;;;4.33;2.73;;;19.20;99.90;;;;;;5052308;28;20527;-88
2021/06/05 03:43:01;;;;;;;3.30;2.20;;;19.20;99.90;;;;;;5052362;28;20442;-88
2021/06/05 03:45:27;;;;;;;2.60;2.40;;;19.20;99.90;;;;;;5053093;28;20458;-89
2021/06/05 03:47:55;;;;;;;3.33;2.17;;;19.20;99.90;;;;;;5052594;28;20477;-88
2021/06/05 03:50:24;;;;;;;2.10;1.97;;;19.20;99.90;;;;;;5052099;28;20480;-89
2021/06/05 03:52:50;;;;;;;2.40;2.07;;;19.10;99.90;;;;;;5052691;28;21151;-89
2021/06/05 03:55:16;;;;;;;2.93;2.27;;;18.90;99.90;;;;;;5062735;28;20452;-89
2021/06/05 03:57:44;;;;;;;2.97;2.77;;;18.80;99.90;;;;;;5066163;28;20476;-88
2021/06/05 04:00:14;;;;;;;2.93;2.00;;;18.90;99.90;;;;;;5061922;28;20493;-87
2021/06/05 04:02:41;;;;;;;2.77;2.47;;;19.00;99.90;;;;;;5068535;28;20439;-88
2021/06/05 04:05:08;;;;;;;3.30;2.07;;;19.10;99.90;;;;;;5098216;28;20424;-89
2021/06/05 04:07:35;;;;;;;3.03;2.23;;;19.10;99.90;;;;;;5096787;28;20445;-87
2021/06/05 04:10:04;;;;;;;3.83;1.97;;;19.10;99.90;;;;;;5095055;28;20463;-87
2021/06/05 04:12:30;;;;;;;6.03;2.37;;;19.10;99.90;;;;;;5082719;28;20447;-88
2021/06/05 04:14:57;;;;;;;4.23;2.10;;;19.10;99.90;;;;;;5094128;28;20434;-87
2021/06/05 04:17:24;;;;;;;3.33;1.97;;;19.10;99.90;;;;;;5098749;28;20494;-87
2021/06/05 04:19:50;;;;;;;2.23;1.93;;;19.20;99.90;;;;;;5079406;28;21050;-88
2021/06/05 04:22:16;;;;;;;3.20;2.33;;;19.20;99.90;;;;;;5079839;28;20451;-89
2021/06/05 04:24:44;;;;;;;3.37;2.20;;;19.30;99.90;;;;;;5077305;28;20453;-90
2021/06/05 04:27:10;;;;;;;2.27;2.07;;;19.30;99.90;;;;;;5075901;28;20953;-85
2021/06/05 04:29:38;;;;;;;3.10;2.30;;;19.40;99.90;;;;;;5077496;28;20862;-85
2021/06/05 04:32:07;;;;;;;3.93;2.20;;;19.40;99.90;;;;;;5076234;28;20962;-85
2021/06/05 04:34:33;;;;;;;3.57;2.43;;;19.40;99.90;;;;;;5093093;28;20423;-85
2021/06/05 04:37:00;;;;;;;3.07;2.83;;;19.40;99.90;;;;;;5086587;28;20447;-85
2021/06/05 04:39:26;;;;;;;3.90;2.90;;;19.30;99.90;;;;;;5093248;28;20448;-85
2021/06/05 04:41:53;;;;;;;4.90;2.57;;;19.30;99.90;;;;;;5076784;28;20445;-84
2021/06/05 04:44:19;;;;;;;4.17;2.70;;;19.30;99.90;;;;;;5075638;28;20436;-85
2021/06/05 04:46:45;;;;;;;2.67;2.30;;;19.30;99.90;;;;;;5093726;28;20474;-85
2021/06/05 04:49:13;;;;;;;5.27;2.30;;;19.40;99.90;;;;;;5077430;28;20853;-85
2021/06/05 04:51:41;;;;;;;2.90;2.60;;;19.40;99.90;;;;;;5076518;28;20454;-86
2021/06/05 04:54:08;;;;;;;2.77;2.57;;;19.30;99.90;;;;;;5080005;28;20452;-85
2021/06/05 04:56:38;;;;;;;4.17;2.40;;;19.40;99.90;;;;;;5076622;28;20445;-84
2021/06/05 04:59:06;;;;;;;3.50;2.40;;;19.40;99.90;;;;;;5076702;28;21059;-85
2021/06/05 05:01:33;;;;;;;3.77;3.03;;;19.30;99.90;;;;;;5074251;28;20968;-85
2021/06/05 05:04:00;;;;;;;3.80;2.80;;;19.30;99.90;;;;;;5056432;28;20445;-87
2021/06/05 05:06:27;;;;;;;2.97;2.67;;;19.30;99.90;;;;;;5066458;28;20495;-85
2021/06/05 05:08:54;;;;;;;3.43;2.90;;;19.30;99.90;;;;;;5057422;28;20482;-86
2021/06/05 05:11:20;;;;;;;2.97;2.63;;;19.30;99.90;;;;;;5055541;28;20451;-85
2021/06/05 05:13:48;;;;;;;5.13;3.17;;;19.40;99.90;;;;;;5055002;28;20446;-85
2021/06/05 05:16:15;;;;;;;3.17;2.87;;;19.40;99.90;;;;;;5075159;28;20523;-85
2021/06/05 05:18:45;;;;;;;2.60;2.27;;;19.40;99.90;;;;;;5067377;28;20872;-85
2021/06/05 05:21:12;;;;;;;2.60;2.40;;;19.40;99.90;;;;;;5054667;28;20454;-85
2021/06/05 05:23:40;;;;;;;2.40;2.10;;;19.40;99.90;;;;;;5054099;28;20488;-85
2021/06/05 05:26:08;;;;;;;5.17;2.83;;;19.40;99.90;;;;;;5056031;28;20459;-86
2021/06/05 05:28:36;;;;;;;3.23;2.60;;;19.40;99.90;;;;;;5058604;28;20982;-84
2021/06/05 05:31:05;;;;;;;3.37;2.83;;;19.40;99.90;;;;;;5058384;28;20483;-86
2021/06/05 05:33:37;;;;;;;4.17;2.70;;;19.40;99.90;;;;;;5070642;28;20443;-86
2021/06/05 05:36:05;;;;;;;3.07;2.77;;;19.40;99.90;;;;;;5074451;28;20443;-84
2021/06/05 05:38:31;;;;;;;5.10;2.90;;;19.40;99.90;;;;;;5080345;28;20443;-84
2021/06/05 05:40:59;;;;;;;2.73;2.10;;;19.40;99.90;;;;;;5076447;28;20443;-85
2021/06/05 05:43:25;;;;;;;3.90;1.97;;;19.40;99.90;;;;;;5074652;28;20437;-84
2021/06/05 05:46:04;;;;;;;5.93;2.60;;;19.50;99.90;;;;;;5082180;28;20462;-85
2021/06/05 05:48:30;;;;;;;3.20;1.87;;;19.50;99.90;;;;;;5077499;28;20479;-87
2021/06/05 05:50:57;;;;;;;6.70;2.33;;;19.60;99.90;;;;;;5077213;28;20443;-87
2021/06/05 05:53:23;;;;;;;7.37;2.63;;;19.70;99.90;;;;;;5076093;28;20431;-88
2021/06/05 05:55:50;;;;;;;5.10;2.10;;;19.90;99.90;;;;;;5091430;28;20474;-87
2021/06/05 05:58:22;;;;;;;4.83;2.83;;;20.00;99.90;;;;;;5087820;28;20475;-87
2021/06/05 06:00:53;;;;;;;3.20;2.90;;;20.10;99.90;;;;;;5078413;28;20991;-87
2021/06/05 06:03:21;;;;;;;2.73;2.20;;;20.20;99.90;;;;;;5074355;28;20453;-86
2021/06/05 06:05:48;;;;;;;3.57;3.00;;;20.30;99.90;;;;;;5087433;28;20415;-85
2021/06/05 06:08:18;;;;;;;2.90;2.53;;;20.40;99.90;;;;;;5097355;28;20460;-84
2021/06/05 06:10:44;;;;;;;3.53;2.40;;;20.50;99.90;;;;;;5077918;28;20440;-85
2021/06/05 06:13:11;;;;;;;3.50;2.80;;;20.70;99.90;;;;;;5074419;28;20442;-85
2021/06/05 06:15:42;;;;;;;3.80;3.27;;;20.80;99.90;;;;;;5069488;28;20438;-85
2021/06/05 06:18:12;;;;;;;4.10;2.40;;;21.00;99.90;;;;;;5070983;28;20435;-85
2021/06/05 06:20:43;;;;;;;2.93;2.10;;;21.10;99.90;;;;;;5072819;28;20459;-85
2021/06/05 06:23:10;;;;;;;12.17;3.20;;;21.20;99.90;;;;;;5084179;28;20470;-84
2021/06/05 06:25:40;;;;;;;2.90;2.40;;;21.30;99.90;;;;;;5092471;28;20436;-85
2021/06/05 06:28:07;;;;;;;2.33;2.10;;;21.40;99.90;;;;;;5081266;28;20565;-84
2021/06/05 06:30:35;;;;;;;3.27;2.37;;;21.50;99.90;;;;;;5095462;28;20456;-84
2021/06/05 06:33:06;;;;;;;3.57;3.27;;;21.60;99.90;;;;;;5096882;28;20469;-83
2021/06/05 06:35:39;;;;;;;2.17;1.97;;;21.70;99.90;;;;;;5097002;28;20423;-84
2021/06/05 06:38:10;;;;;;;2.60;2.20;;;21.80;99.90;;;;;;5096868;28;20428;-83
2021/06/05 06:40:38;;;;;;;4.73;2.10;;;21.80;99.90;;;;;;5089829;28;20470;-85
2021/06/05 06:43:07;;;;;;;3.07;2.17;;;22.10;99.90;;;;;;5079948;28;20420;-84
2021/06/05 06:45:33;;;;;;;3.10;2.57;;;22.50;99.90;;;;;;5081474;28;20428;-83
2021/06/05 06:48:00;;;;;;;3.20;2.10;;;23.10;98.50;;;;;;5088492;28;20443;-84
2021/06/05 06:50:30;;;;;;;2.17;1.97;;;24.10;97.00;;;;;;5096310;28;20470;-83
2021/06/05 06:52:56;;;;;;;2.10;1.80;;;24.90;94.70;;;;;;5090155;28;20435;-85
2021/06/05 06:55:24;;;;;;;2.00;1.80;;;25.60;93.10;;;;;;5074239;28;20466;-85
2021/06/05 06:57:50;;;;;;;2.30;2.10;;;26.50;91.50;;;;;;5075740;28;20514;-85
2021/06/05 07:00:22;;;;;;;2.63;2.27;;;27.20;88.70;;;;;;5074929;28;20467;-85
2021/06/05 07:02:49;;;;;;;1.70;1.60;;;27.60;87.70;;;;;;5073219;28;20436;-85
2021/06/05 07:05:15;;;;;;;2.80;2.20;;;28.10;82.50;;;;;;5074105;28;20436;-85
2021/06/05 07:07:42;;;;;;;2.20;1.77;;;28.80;80.10;;;;;;5075006;28;20451;-84
2021/06/05 07:10:12;;;;;;;2.60;1.60;;;29.10;77.70;;;;;;5072607;28;20490;-85
2021/06/05 07:12:38;;;;;;;3.93;2.30;;;29.30;76.90;;;;;;5071733;28;20428;-85
2021/06/05 07:15:06;;;;;;;2.40;1.67;;;29.60;75.40;;;;;;5073715;28;20470;-84
2021/06/05 07:17:32;;;;;;;3.53;2.20;;;29.40;73.50;;;;;;5071541;28;20444;-85
2021/06/05 07:19:58;;;;;;;5.30;2.00;;;29.60;73.60;;;;;;5055051;28;20460;-85
2021/06/05 07:22:25;;;;;;;3.00;1.97;;;29.70;73.00;;;;;;5058878;28;20446;-84
2021/06/05 07:24:53;;;;;;;3.03;1.60;;;28.90;72.60;;;;;;5055444;28;20464;-85
2021/06/05 07:27:19;;;;;;;3.70;1.80;;;28.60;75.10;;;;;;5055854;28;20455;-84
2021/06/05 07:29:45;;;;;;;4.17;1.90;;;28.20;75.70;;;;;;5056700;28;20479;-84
2021/06/05 07:32:12;;;;;;;2.97;2.00;;;27.60;78.30;;;;;;5079951;28;20506;-84
2021/06/05 07:34:38;;;;;;;2.13;1.93;;;27.00;80.80;;;;;;5098467;28;20447;-84
2021/06/05 07:37:07;;;;;;;4.43;2.53;;;26.60;82.20;;;;;;5081914;28;20840;-85
2021/06/05 07:39:34;;;;;;;3.43;1.90;;;26.20;82.70;;;;;;5077302;28;20473;-85
2021/06/05 07:42:03;;;;;;;4.10;2.00;;;26.10;84.70;;;;;;5078913;28;20821;-86
2021/06/05 07:44:31;;;;;;;3.03;2.40;;;26.00;85.70;;;;;;5078170;28;20453;-84
2021/06/05 07:47:00;;;;;;;1.73;1.63;;;25.80;85.60;;;;;;5079687;28;20509;-84
2021/06/05 07:49:29;;;;;;;3.10;2.00;;;25.50;87.70;;;;;;5077226;28;20899;-85
2021/06/05 07:51:55;;;;;;;2.23;1.70;;;25.40;86.40;;;;;;5089012;28;20454;-86
2021/06/05 07:54:21;;;;;;;7.03;2.50;;;25.00;87.40;;;;;;5096242;28;20848;-84
2021/06/05 07:56:49;;;;;;;1.83;1.53;;;24.90;89.90;;;;;;5094168;28;20944;-85
2021/06/05 07:59:19;;;;;;;2.20;1.77;;;24.90;89.30;;;;;;5092823;28;20474;-85
2021/06/05 08:01:46;;;;;;;2.83;2.33;;;25.00;90.10;;;;;;5097906;28;20431;-86
2021/06/05 08:04:12;;;;;;;2.33;2.13;;;24.90;90.00;;;;;;5097346;28;20447;-84
2021/06/05 08:06:39;;;;;;;5.30;2.27;;;24.90;89.40;;;;;;5096510;28;20447;-84
2021/06/05 08:09:06;;;;;;;5.03;2.13;;;25.00;90.30;;;;;;5098599;28;20508;-84
2021/06/05 08:11:33;;;;;;;3.53;1.60;;;25.10;90.20;;;;;;5097025;28;20447;-85
2021/06/05 08:13:59;;;;;;;2.50;1.83;;;25.10;90.40;;;;;;5083376;28;20459;-85
2021/06/05 08:16:27;;;;;;;3.27;1.70;;;25.10;90.00;;;;;;5095135;28;20447;-84
2021/06/05 08:18:53;;;;;;;3.17;1.93;;;24.90;89.50;;;;;;5088476;28;20451;-87
2021/06/05 08:21:21;;;;;;;3.43;2.57;;;24.80;90.30;;;;;;5086890;28;20435;-85
2021/06/05 08:23:48;;;;;;;5.27;2.30;;;24.50;90.80;;;;;;5080992;28;20489;-85
2021/06/05 08:26:18;;;;;;;2.40;2.03;;;24.20;91.10;;;;;;5079694;28;20464;-85
2021/06/05 08:28:45;;;;;;;7.20;1.90;;;24.10;91.60;;;;;;5078305;28;20858;-86
2021/06/05 08:31:14;;;;;;;3.67;2.27;;;23.90;91.70;;;;;;5082364;28;20458;-85
2021/06/05 08:33:42;;;;;;;3.40;2.63;;;23.80;92.10;;;;;;5086377;28;20581;-85
2021/06/05 08:36:10;;;;;;;2.13;1.87;;;23.60;91.90;;;;;;5092779;28;20442;-85
2021/06/05 08:38:37;;;;;;;2.43;2.23;;;23.40;92.30;;;;;;5084320;28;20473;-85
2021/06/05 08:41:07;;;;;;;5.27;3.43;;;23.40;93.30;;;;;;5089033;28;20456;-85
2021/06/05 08:43:39;;;;;;;2.43;1.63;;;23.30;93.40;;;;;;5086373;28;20473;-85
2021/06/05 08:46:08;;;;;;;2.83;2.13;;;23.20;93.50;;;;;;5088316;28;20460;-85
2021/06/05 08:48:35;;;;;;;2.57;1.77;;;23.20;93.50;;;;;;5086086;28;20485;-86
2021/06/05 08:51:13;;;;;;;3.03;2.50;;;23.20;93.50;;;;;;5080912;28;20458;-85
2021/06/05 08:53:40;;;;;;;3.27;2.87;;;23.20;93.20;;;;;;5078376;28;20441;-85
2021/06/05 08:56:12;;;;;;;2.60;1.90;;;23.30;93.20;;;;;;5077457;28;20469;-85
2021/06/05 08:58:41;;;;;;;2.70;1.73;;;23.50;93.10;;;;;;5077070;28;20445;-85
2021/06/05 09:01:14;;;;;;;3.00;2.20;;;23.60;92.80;;;;;;5076828;28;20534;-84
2021/06/05 09:03:41;;;;;;;2.53;1.60;;;23.60;93.10;;;;;;5077349;28;20533;-85
2021/06/05 09:06:16;;;;;;;2.27;2.07;;;23.60;93.30;;;;;;5074042;28;20454;-84
2021/06/05 09:08:43;;;;;;;2.90;1.87;;;23.60;93.00;;;;;;5055185;28;20485;-85
2021/06/05 09:11:10;;;;;;;3.73;2.13;;;23.70;92.70;;;;;;5056323;28;20442;-85
2021/06/05 09:13:38;;;;;;;3.13;2.23;;;23.50;92.70;;;;;;5054726;28;20445;-85
2021/06/05 09:16:34;;;;;;;2.00;1.87;;;23.40;93.10;;;;;;5066173;28;20931;-85
2021/06/05 09:19:03;;;;;;;3.73;2.20;;;23.30;93.40;;;;;;5066082;28;20516;-85
2021/06/05 09:21:33;;;;;;;3.13;2.10;;;23.30;93.50;;;;;;5055186;28;20845;-84
2021/06/05 09:24:28;;;;;;;4.10;2.30;;;23.40;93.90;;;;;;5055475;28;20849;-85
2021/06/05 09:27:08;;;;;;;2.77;2.13;;;23.40;93.60;;;;;;5040941;28;20463;-85
2021/06/05 09:29:49;;;;;;;2.90;1.93;;;23.50;93.70;;;;;;5055373;28;20489;-84
2021/06/05 09:32:18;;;;;;;2.63;2.40;;;23.60;93.50;;;;;;5055545;28;20892;-84
2021/06/05 09:34:47;;;;;;;2.30;1.83;;;24.00;93.50;;;;;;5054938;28;20428;-83
2021/06/05 09:37:34;;;;;;;2.40;1.87;;;24.30;92.80;;;;;;5053752;28;20443;-84
2021/06/05 09:40:13;;;;;;;2.93;2.20;;;24.60;92.00;;;;;;5053731;28;20988;-84
2021/06/05 09:42:42;;;;;;;2.80;2.20;;;24.70;91.80;;;;;;5054420;28;20944;-84
2021/06/05 09:45:21;;;;;;;3.33;2.40;;;24.70;91.70;;;;;;5055395;28;20460;-84
2021/06/05 09:47:47;;;;;;;3.20;2.23;;;24.50;91.90;;;;;;5063559;28;20443;-84
2021/06/05 09:50:24;;;;;;;3.10;2.53;;;24.40;92.20;;;;;;5057514;28;20562;-84
2021/06/05 09:52:52;;;;;;;3.17;2.73;;;24.20;92.10;;;;;;5056825;28;20451;-84
2021/06/05 09:55:46;;;;;;;3.57;2.60;;;24.00;92.50;;;;;;5054447;28;20602;-84
2021/06/05 09:58:32;;;;;;;3.20;2.37;;;23.80;93.10;;;;;;5030019;28;20530;-85
2021/06/05 10:01:13;;;;;;;3.47;2.83;;;23.60;93.80;;;;;;5055198;28;20439;-85
2021/06/05 10:03:40;;;;;;;4.77;2.73;;;23.50;94.30;;;;;;5063051;28;20424;-84
2021/06/05 10:06:17;;;;;;;4.47;2.30;;;23.40;94.60;;;;;;5075380;28;20444;-84
2021/06/05 10:08:45;;;;;;;3.93;3.63;;;23.30;95.10;;;;;;5092474;28;20459;-85
2021/06/05 10:11:19;;;;;;;2.87;2.37;;;23.40;95.30;;;;;;5098532;28;20437;-84
2021/06/05 10:13:50;;;;;;;2.50;2.30;;;23.40;95.50;;;;;;5085078;28;20450;-86
2021/06/05 10:16:19;;;;;;;2.50;2.30;;;23.50;95.70;;;;;;5076761;28;20455;-85
2021/06/05 10:18:51;;;;;;;2.60;2.40;;;23.80;95.80;;;;;;5076977;28;20458;-85
2021/06/05 10:21:22;;;;;;;2.70;1.87;;;24.20;95.70;;;;;;5075362;28;20457;-85
2021/06/05 10:23:54;;;;;;;3.43;2.20;;;24.70;94.50;;;;;;5078557;28;20447;-85
2021/06/05 10:26:25;;;;;;;5.63;3.60;;;25.00;93.40;;;;;;5075753;28;20426;-84
2021/06/05 10:28:56;;;;;;;3.50;3.10;;;25.20;93.10;;;;;;5089218;28;20523;-84
2021/06/05 10:31:23;;;;;;;3.23;2.27;;;25.40;92.90;;;;;;5095088;28;20436;-84
2021/06/05 10:33:53;;;;;;;2.70;2.20;;;25.40;92.70;;;;;;5080399;28;20454;-84
2021/06/05 10:36:24;;;;;;;3.20;2.03;;;25.60;92.50;;;;;;5090134;28;20511;-85
2021/06/05 10:38:57;;;;;;;3.70;2.07;;;25.80;92.10;;;;;;5073619;28;20961;-86
2021/06/05 10:41:27;;;;;;;2.30;1.80;;;25.80;91.40;;;;;;5059589;28;20494;-86
2021/06/05 10:43:54;;;;;;;2.20;2.00;;;25.90;91.30;;;;;;5064766;28;21216;-89
2021/06/05 10:46:28;;;;;;;1.83;1.73;;;26.00;91.30;;;;;;5069266;28;20444;-85
2021/06/05 10:49:06;;;;;;;2.20;1.70;;;26.20;91.40;;;;;;5070625;28;20487;-87
2021/06/05 10:51:35;;;;;;;4.00;1.80;;;26.40;91.40;;;;;;5056241;28;20447;-86
2021/06/05 10:54:07;;;;;;;2.00;1.70;;;26.40;91.40;;;;;;5068266;28;20534;-86
2021/06/05 10:56:40;;;;;;;2.50;1.87;;;26.20;91.90;;;;;;5069931;28;20496;-86
2021/06/05 10:59:28;;;;;;;2.33;1.90;;;26.30;92.30;;;;;;5074678;28;20515;-86
2021/06/05 11:01:55;;;;;;;2.50;2.30;;;26.50;91.10;;;;;;5069291;28;20447;-86
2021/06/05 11:04:45;;;;;;;2.57;2.37;;;26.20;90.70;;;;;;5060399;28;20458;-86
2021/06/05 11:07:33;;;;;;;2.80;2.07;;;26.20;91.80;;;;;;5055537;28;20983;-86
2021/06/05 11:10:06;;;;;;;2.60;1.80;;;26.20;91.00;;;;;;5060805;28;20501;-89
2021/06/05 11:12:51;;;;;;;2.90;2.40;;;26.20;91.30;;;;;;5072916;28;20448;-88
2021/06/05 11:15:53;;;;;;;2.47;2.23;;;25.80;91.00;;;;;;5069330;28;20440;-89
2021/06/05 11:18:31;;;;;;;3.60;3.30;;;25.80;92.50;;;;;;5015501;28;20560;-88
2021/06/05 11:20:59;;;;;;;2.00;1.90;;;25.60;93.20;;;;;;5074307;28;20449;-88
2021/06/05 11:23:31;;;;;;;2.20;2.00;;;25.10;93.00;;;;;;5095215;28;20435;-88
2021/06/05 11:26:27;;;;;;;3.10;2.17;;;24.80;94.90;;;;;;5087984;28;20435;-88
2021/06/05 11:28:53;;;;;;;2.73;2.20;;;24.40;94.70;;;;;;5058775;28;20479;-89
2021/06/05 11:31:41;;;;;;;3.57;2.70;;;24.50;95.20;;;;;;5090663;28;20466;-87
2021/06/05 11:34:08;;;;;;;3.43;2.10;;;24.60;94.70;;;;;;5096666;28;20442;-85
2021/06/05 11:36:45;;;;;;;3.97;2.50;;;24.80;95.30;;;;;;5093031;28;20434;-86
2021/06/05 11:39:29;;;;;;;3.47;2.00;;;25.20;95.10;;;;;;5078124;28;20466;-85
2021/06/05 11:41:58;;;;;;;4.60;2.80;;;25.60;95.30;;;;;;5089204;28;20442;-85
2021/06/05 11:44:28;;;;;;;3.93;2.23;;;26.20;93.70;;;;;;5094197;28;20470;-84
2021/06/05 11:46:57;;;;;;;2.30;1.93;;;26.50;93.80;;;;;;5081542;28;20443;-85
2021/06/05 11:50:19;;;;;;;2.20;1.93;;;26.50;91.70;;;;;;5079364;28;20486;-85
2021/06/05 11:52:52;;;;;;;3.20;2.13;;;26.80;91.30;;;;;;5092092;28;20427;-84
2021/06/05 11:55:41;;;;;;;2.10;1.90;;;26.40;90.30;;;;;;5088794;28;20446;-84
2021/06/05 11:58:15;;;;;;;2.50;2.30;;;26.50;89.20;;;;;;5089565;28;20451;-84
2021/06/05 12:00:45;;;;;;;2.40;1.97;;;27.30;88.30;;;;;;5092192;28;20503;-85
2021/06/05 12:03:24;;;;;;;3.83;3.13;;;29.00;85.30;;;;;;5080754;28;20498;-85
2021/06/05 12:05:50;;;;;;;1.93;1.63;;;29.50;82.00;;;;;;5077674;28;20573;-85
2021/06/05 12:08:25;;;;;;;2.00;1.80;;;29.10;80.80;;;;;;5077137;28;20528;-85
2021/06/05 12:10:52;;;;;;;3.73;2.00;;;29.60;79.00;;;;;;5095123;28;20493;-85
2021/06/05 12:13:26;;;;;;;2.10;1.53;;;29.70;75.70;;;;;;5078766;28;20533;-85
2021/06/05 12:15:55;;;;;;;3.13;2.70;;;29.50;76.30;;;;;;5076233;28;20812;-86
2021/06/05 12:18:25;;;;;;;2.70;1.73;;;29.00;76.40;;;;;;5074744;28;20444;-85
2021/06/05 12:20:58;;;;;;;4.30;3.90;;;28.20;78.60;;;;;;5075015;28;20602;-86
2021/06/05 12:23:30;;;;;;;2.40;2.20;;;27.80;80.70;;;;;;5077284;28;20950;-85
2021/06/05 12:26:09;;;;;;;2.37;1.83;;;27.50;81.10;;;;;;5075370;28;20450;-86
2021/06/05 12:28:37;;;;;;;2.67;1.97;;;27.20;82.10;;;;;;5095545;28;20423;-85
2021/06/05 12:31:14;;;;;;;3.23;2.27;;;26.70;81.10;;;;;;5091113;28;20468;-85
2021/06/05 12:33:42;;;;;;;2.27;1.40;;;26.30;82.80;;;;;;5076985;28;20481;-85
2021/06/05 12:36:17;;;;;;;6.23;2.60;;;26.00;83.00;;;;;;5077078;28;20440;-85
2021/06/05 12:38:49;;;;;;;3.97;2.90;;;25.70;83.50;;;;;;5078017;28;20446;-85
2021/06/05 12:41:21;;;;;;;7.63;6.07;;;25.50;86.00;;;;;;5077099;28;20447;-86
2021/06/05 12:43:47;;;;;;;4.13;3.37;;;25.40;87.60;;;;;;5077732;28;20451;-85
2021/06/05 12:46:19;;;;;;;6.57;4.73;;;25.30;88.30;;;;;;5077563;28;20514;-87
2021/06/05 12:48:46;;;;;;;6.23;5.73;;;25.20;89.80;;;;;;5076567;28;20452;-86
2021/06/05 12:51:20;;;;;;;2.27;2.07;;;25.20;90.00;;;;;;5077271;28;20843;-86
2021/06/05 12:53:58;;;;;;;2.83;2.03;;;25.40;90.00;;;;;;5077349;28;20444;-86
2021/06/05 12:56:34;;;;;;;3.50;2.40;;;25.80;89.10;;;;;;5076513;28;20450;-86
2021/06/05 12:59:03;;;;;;;3.47;2.17;;;26.20;87.70;;;;;;5081017;28;20511;-86
2021/06/05 13:01:36;;;;;;;2.30;1.80;;;26.50;87.30;;;;;;5090794;28;20444;-86
2021/06/05 13:04:04;;;;;;;3.30;1.60;;;26.50;87.10;;;;;;5070692;28;20870;-86